createdAt,value
2017-12-29T00:00:50.283Z,5.72
2017-12-29T00:03:18.598Z,6.35
2017-12-29T00:05:47.470Z,5.78
2017-12-29T00:08:15.799Z,6.35
2017-12-29T00:10:44.143Z,5.75
2017-12-29T00:13:12.498Z,6.07
2017-12-29T00:15:40.882Z,5.85
2017-12-29T00:18:09.229Z,5.37
2017-12-29T00:20:38.383Z,5.95
2017-12-29T00:23:06.717Z,6.80
2017-12-29T00:25:35.817Z,6.62
2017-12-29T00:28:05.192Z,6.25
2017-12-29T00:30:34.353Z,6.10
2017-12-29T00:33:02.693Z,6.05
2017-12-29T00:35:31.816Z,5.25
2017-12-29T00:38:00.169Z,5.50
2017-12-29T00:40:28.507Z,6.20
2017-12-29T00:42:56.855Z,5.25
2017-12-29T00:45:25.189Z,6.03
2017-12-29T00:47:53.702Z,5.90
2017-12-29T00:50:22.611Z,5.57
2017-12-29T00:52:50.905Z,5.30
2017-12-29T00:55:20.000Z,5.65
2017-12-29T00:57:48.370Z,5.30
2017-12-29T01:00:16.699Z,5.07
2017-12-29T01:02:45.027Z,5.70
2017-12-29T01:05:13.380Z,5.30
2017-12-29T01:07:41.701Z,6.03
2017-12-29T01:10:10.158Z,5.68
2017-12-29T01:12:38.926Z,6.22
2017-12-29T01:15:07.255Z,5.60
2017-12-29T01:17:35.582Z,6.30
2017-12-29T01:20:04.695Z,5.95
2017-12-29T01:22:33.013Z,5.65
2017-12-29T01:25:01.322Z,6.25
2017-12-29T01:27:29.702Z,6.12
2017-12-29T01:29:58.800Z,5.35
2017-12-29T01:32:27.891Z,5.55
2017-12-29T01:34:57.474Z,5.37
2017-12-29T01:37:25.778Z,5.85
2017-12-29T01:39:54.101Z,5.37
2017-12-29T01:42:22.471Z,5.05
2017-12-29T01:44:50.789Z,5.43
2017-12-29T01:47:19.147Z,5.35
2017-12-29T01:49:47.481Z,5.80
2017-12-29T01:52:16.557Z,5.70
2017-12-29T01:54:45.663Z,5.20
2017-12-29T01:57:15.001Z,5.68
2017-12-29T01:59:43.294Z,5.90
2017-12-29T02:02:11.619Z,6.82
2017-12-29T02:04:40.723Z,5.40
2017-12-29T02:07:09.868Z,6.15
2017-12-29T02:09:38.190Z,5.20
2017-12-29T02:12:07.996Z,5.40
2017-12-29T02:14:37.080Z,6.25
2017-12-29T02:17:05.390Z,5.85
2017-12-29T02:19:34.044Z,5.72
2017-12-29T02:22:02.431Z,5.78
2017-12-29T02:24:31.516Z,6.55
2017-12-29T02:27:00.120Z,7.00
2017-12-29T02:29:28.425Z,6.50
2017-12-29T02:31:56.756Z,6.62
2017-12-29T02:34:25.128Z,7.00
2017-12-29T02:36:53.473Z,6.22
2017-12-29T02:39:21.828Z,7.12
2017-12-29T02:41:50.825Z,6.20
2017-12-29T02:44:19.154Z,7.75
2017-12-29T02:46:48.395Z,6.97
2017-12-29T02:49:16.733Z,6.72
2017-12-29T02:51:45.078Z,7.43
2017-12-29T02:54:13.397Z,7.07
2017-12-29T02:57:03.756Z,7.28
2017-12-29T02:59:32.081Z,7.50
2017-12-29T03:02:00.385Z,7.82
2017-12-29T03:04:28.754Z,6.65
2017-12-29T03:06:57.844Z,6.37
2017-12-29T03:09:26.980Z,6.80
2017-12-29T03:11:55.316Z,7.18
2017-12-29T03:14:24.422Z,6.45
2017-12-29T03:16:53.495Z,6.97
2017-12-29T03:19:22.040Z,6.62
2017-12-29T03:21:50.375Z,6.68
2017-12-29T03:24:19.465Z,6.62
2017-12-29T03:26:48.600Z,6.82
2017-12-29T03:29:16.907Z,6.50
2017-12-29T03:31:45.246Z,8.02
2017-12-29T03:34:13.577Z,7.00
2017-12-29T03:36:42.203Z,7.70
2017-12-29T03:39:10.558Z,6.95
2017-12-29T03:41:43.067Z,7.70
2017-12-29T03:44:11.849Z,6.87
2017-12-29T03:46:40.161Z,6.93
2017-12-29T03:49:08.509Z,7.45
2017-12-29T03:51:36.981Z,7.05
2017-12-29T03:54:05.288Z,6.40
2017-12-29T03:56:33.624Z,7.25
2017-12-29T03:59:02.756Z,7.82
2017-12-29T04:01:31.058Z,7.78
2017-12-29T04:03:59.857Z,8.27
2017-12-29T04:06:34.020Z,7.90
2017-12-29T04:09:02.352Z,7.53
2017-12-29T04:11:50.277Z,7.60
2017-12-29T04:14:18.611Z,8.77
2017-12-29T04:16:46.953Z,7.70
2017-12-29T04:19:17.033Z,9.15
2017-12-29T04:21:45.583Z,7.68
2017-12-29T04:24:13.895Z,7.50
2017-12-29T04:26:42.241Z,7.53
2017-12-29T04:29:11.399Z,7.90
2017-12-29T04:31:39.710Z,8.23
2017-12-29T04:34:08.021Z,8.52
2017-12-29T04:36:36.368Z,9.50
2017-12-29T04:39:05.454Z,9.25
2017-12-29T04:41:34.578Z,9.10
2017-12-29T04:44:03.170Z,8.90
2017-12-29T04:46:31.521Z,9.45
2017-12-29T04:49:00.642Z,9.30
2017-12-29T04:51:28.986Z,8.82
2017-12-29T04:53:57.330Z,8.50
2017-12-29T04:56:25.656Z,8.05
2017-12-29T04:58:54.024Z,9.02
2017-12-29T05:01:22.377Z,8.85
2017-12-29T05:03:50.715Z,9.32
2017-12-29T05:06:19.319Z,9.13
2017-12-29T05:08:47.649Z,9.27
2017-12-29T05:11:16.734Z,9.73
2017-12-29T05:13:55.966Z,8.90
2017-12-29T05:16:24.327Z,9.40
2017-12-29T05:18:52.671Z,8.95
2017-12-29T05:21:21.241Z,9.95
2017-12-29T05:23:49.556Z,9.30
2017-12-29T05:26:18.400Z,9.27
2017-12-29T05:28:46.745Z,8.73
2017-12-29T05:31:15.080Z,9.07
2017-12-29T05:33:43.451Z,8.30
2017-12-29T05:36:11.813Z,9.50
2017-12-29T05:38:40.917Z,8.70
2017-12-29T05:41:10.013Z,8.65
2017-12-29T05:43:38.426Z,9.55
2017-12-29T05:46:06.765Z,8.88
2017-12-29T05:48:35.838Z,9.25
2017-12-29T05:51:04.211Z,9.48
2017-12-29T05:53:32.553Z,9.65
2017-12-29T05:56:00.962Z,9.88
2017-12-29T05:58:29.314Z,10.43
2017-12-29T06:00:57.673Z,9.85
2017-12-29T06:03:26.025Z,9.15
2017-12-29T06:05:54.855Z,9.05
2017-12-29T06:08:23.234Z,9.40
2017-12-29T06:10:51.566Z,9.10
2017-12-29T06:13:19.963Z,10.15
2017-12-29T06:15:49.034Z,9.70
2017-12-29T06:18:17.376Z,8.65
2017-12-29T06:20:45.743Z,9.32
2017-12-29T06:23:14.070Z,9.32
2017-12-29T06:25:42.404Z,10.27
2017-12-29T06:28:10.983Z,11.60
2017-12-29T06:30:40.090Z,9.18
2017-12-29T06:33:08.436Z,9.65
2017-12-29T06:35:36.778Z,9.52
2017-12-29T06:38:05.139Z,9.77
2017-12-29T06:40:33.484Z,8.88
2017-12-29T06:43:01.843Z,9.98
2017-12-29T06:45:30.934Z,9.65
2017-12-29T06:48:00.042Z,9.55
2017-12-29T06:50:29.634Z,9.43
2017-12-29T06:52:57.992Z,9.43
2017-12-29T06:55:26.322Z,10.40
2017-12-29T06:57:54.849Z,8.88
2017-12-29T07:00:23.236Z,10.88
2017-12-29T07:02:51.569Z,9.30
2017-12-29T07:05:19.914Z,10.45
2017-12-29T07:07:48.258Z,9.48
2017-12-29T07:10:17.357Z,10.85
2017-12-29T07:12:46.068Z,10.90
2017-12-29T07:15:14.417Z,11.45
2017-12-29T07:17:42.772Z,10.07
2017-12-29T07:20:11.145Z,11.07
2017-12-29T07:22:39.482Z,10.93
2017-12-29T07:25:07.880Z,11.45
2017-12-29T07:27:36.985Z,11.30
2017-12-29T07:30:06.096Z,13.23
2017-12-29T07:32:34.463Z,10.85
2017-12-29T07:35:03.353Z,12.18
2017-12-29T07:37:31.698Z,12.20
2017-12-29T07:40:00.049Z,12.20
2017-12-29T07:42:28.392Z,11.35
2017-12-29T07:44:56.944Z,11.60
2017-12-29T07:47:25.281Z,12.63
2017-12-29T07:49:53.650Z,12.02
2017-12-29T07:52:21.977Z,11.68
2017-12-29T07:54:50.323Z,12.23
2017-12-29T07:57:18.905Z,12.98
2017-12-29T07:59:47.246Z,12.05
2017-12-29T08:02:15.637Z,13.25
2017-12-29T08:04:44.003Z,13.05
2017-12-29T08:07:12.386Z,12.95
2017-12-29T08:09:40.687Z,12.75
2017-12-29T08:12:09.066Z,12.55
2017-12-29T08:14:37.449Z,12.00
2017-12-29T08:17:05.802Z,12.52
2017-12-29T08:19:34.586Z,11.68
2017-12-29T08:22:03.665Z,11.82
2017-12-29T08:24:31.987Z,13.18
2017-12-29T08:27:00.374Z,12.15
2017-12-29T08:29:28.715Z,13.00
2017-12-29T08:31:57.820Z,12.90
2017-12-29T08:34:26.176Z,12.40
2017-12-29T08:36:54.508Z,13.00
2017-12-29T08:39:22.812Z,13.00
2017-12-29T08:41:51.235Z,13.25
2017-12-29T08:44:20.347Z,13.85
2017-12-29T08:46:48.697Z,12.30
2017-12-29T08:49:17.108Z,12.60
2017-12-29T08:51:45.423Z,12.63
2017-12-29T08:54:13.732Z,14.45
2017-12-29T08:56:43.097Z,12.45
2017-12-29T08:59:11.421Z,12.93
2017-12-29T09:01:40.518Z,12.57
2017-12-29T09:04:09.932Z,12.68
2017-12-29T09:06:38.285Z,14.10
2017-12-29T09:09:07.380Z,14.50
2017-12-29T09:11:35.810Z,13.40
2017-12-29T09:14:04.117Z,14.65
2017-12-29T09:16:32.444Z,14.15
2017-12-29T09:19:00.812Z,14.15
2017-12-29T09:21:29.932Z,14.60
2017-12-29T09:23:58.295Z,14.77
2017-12-29T09:26:27.031Z,15.23
2017-12-29T09:28:55.347Z,16.27
2017-12-29T09:31:23.686Z,14.95
2017-12-29T09:33:52.031Z,15.38
2017-12-29T09:36:20.363Z,14.45
2017-12-29T09:38:48.720Z,15.65
2017-12-29T09:41:17.072Z,15.20
2017-12-29T09:43:48.482Z,16.67
2017-12-29T09:46:16.831Z,15.93
2017-12-29T09:48:45.366Z,15.52
2017-12-29T09:51:13.685Z,16.75
2017-12-29T09:53:41.997Z,16.20
2017-12-29T09:56:11.129Z,15.45
2017-12-29T09:58:39.477Z,15.98
2017-12-29T10:01:08.566Z,14.73
2017-12-29T10:03:36.947Z,16.30
2017-12-29T10:06:05.317Z,15.55
2017-12-29T10:08:33.655Z,15.25
2017-12-29T10:11:02.117Z,14.48
2017-12-29T10:13:30.461Z,14.98
2017-12-29T10:15:58.757Z,14.82
2017-12-29T10:18:34.718Z,15.38
2017-12-29T10:21:03.831Z,15.20
2017-12-29T10:23:32.163Z,14.50
2017-12-29T10:26:00.513Z,14.20
2017-12-29T10:28:28.820Z,15.05
2017-12-29T10:30:57.198Z,15.00
2017-12-29T10:33:25.613Z,14.48
2017-12-29T10:35:54.000Z,14.90
2017-12-29T10:38:22.340Z,14.07
2017-12-29T10:40:50.711Z,13.30
2017-12-29T10:43:19.020Z,13.27
2017-12-29T10:45:47.341Z,13.68
2017-12-29T10:48:15.678Z,13.60
2017-12-29T10:50:44.043Z,15.45
2017-12-29T10:53:13.165Z,12.10
2017-12-29T10:55:41.610Z,13.37
2017-12-29T10:58:09.917Z,13.07
2017-12-29T11:00:38.256Z,13.27
2017-12-29T11:03:06.646Z,14.53
2017-12-29T11:05:34.978Z,14.13
2017-12-29T11:08:03.290Z,12.77
2017-12-29T11:10:31.690Z,14.60
2017-12-29T11:13:00.990Z,13.60
2017-12-29T11:15:29.369Z,13.60
2017-12-29T11:17:58.241Z,14.73
2017-12-29T11:20:26.643Z,14.30
2017-12-29T11:22:55.013Z,15.27
2017-12-29T11:25:23.534Z,14.17
2017-12-29T11:27:51.884Z,14.83
2017-12-29T11:30:20.218Z,14.73
2017-12-29T11:32:48.741Z,14.40
2017-12-29T11:35:17.907Z,12.03
2017-12-29T11:37:46.251Z,12.70
2017-12-29T11:40:14.694Z,12.30
2017-12-29T11:42:43.601Z,12.53
2017-12-29T11:45:12.725Z,11.47
2017-12-29T11:47:41.088Z,12.00
2017-12-29T11:50:09.446Z,11.20
2017-12-29T11:52:37.813Z,12.20
2017-12-29T11:55:06.190Z,10.80
2017-12-29T11:57:36.372Z,11.13
2017-12-29T12:00:04.674Z,12.37
2017-12-29T12:02:33.234Z,11.70
2017-12-29T12:05:01.598Z,11.50
2017-12-29T12:07:29.953Z,12.70
2017-12-29T12:09:59.111Z,11.10
2017-12-29T12:12:27.456Z,9.77
2017-12-29T12:14:55.764Z,10.87
2017-12-29T12:17:24.125Z,9.97
2017-12-29T12:19:52.463Z,9.90
2017-12-29T12:22:20.808Z,9.90
2017-12-29T12:27:46.881Z,9.50
2017-12-29T12:30:15.233Z,8.87
2017-12-29T12:32:43.586Z,7.70
2017-12-29T12:35:12.257Z,8.30
2017-12-29T12:37:40.582Z,9.17
2017-12-29T12:40:08.934Z,8.40
2017-12-29T12:42:37.572Z,8.87
2017-12-29T12:45:06.684Z,9.10
2017-12-29T12:47:35.031Z,8.17
2017-12-29T12:50:03.794Z,6.93
2017-12-29T12:52:32.173Z,7.10
2017-12-29T12:55:01.350Z,7.00
2017-12-29T12:57:30.199Z,6.90
2017-12-29T12:59:58.524Z,7.57
2017-12-29T13:02:26.855Z,8.83
2017-12-29T13:04:55.668Z,7.40
2017-12-29T13:07:24.010Z,7.87
2017-12-29T13:09:52.374Z,5.73
2017-12-29T13:12:21.306Z,7.43
2017-12-29T13:14:49.667Z,7.80
2017-12-29T13:17:17.970Z,6.83
2017-12-29T13:19:47.405Z,5.93
2017-12-29T13:22:15.826Z,6.50
2017-12-29T13:24:44.165Z,5.93
2017-12-29T13:27:12.784Z,5.80
2017-12-29T13:29:41.140Z,5.50
2017-12-29T13:32:09.489Z,5.07
2017-12-29T13:34:39.278Z,4.63
2017-12-29T13:37:08.375Z,4.77
2017-12-29T13:39:36.717Z,5.10
2017-12-29T13:42:05.527Z,4.40
2017-12-29T13:44:33.909Z,4.67
2017-12-29T13:47:02.241Z,4.60
2017-12-29T13:49:30.991Z,3.90
2017-12-29T13:51:59.332Z,4.50
2017-12-29T13:54:27.684Z,4.43
2017-12-29T13:56:56.417Z,5.13
2017-12-29T13:59:24.731Z,3.70
2017-12-29T14:01:53.056Z,5.20
2017-12-29T14:04:21.699Z,4.30
2017-12-29T14:06:50.089Z,4.20
2017-12-29T14:09:18.440Z,4.40
2017-12-29T14:11:47.044Z,3.83
2017-12-29T14:14:15.408Z,3.83
2017-12-29T14:16:44.538Z,3.80
2017-12-29T14:19:13.663Z,4.27
2017-12-29T14:21:42.027Z,3.90
2017-12-29T14:24:10.344Z,3.63
2017-12-29T14:26:39.237Z,3.70
2017-12-29T14:29:08.328Z,4.20
2017-12-29T14:31:36.683Z,3.03
2017-12-29T14:34:05.335Z,4.27
2017-12-29T14:36:33.665Z,2.90
2017-12-29T14:39:02.788Z,3.17
2017-12-29T14:44:28.984Z,3.35
2017-12-29T14:46:57.286Z,3.92
2017-12-29T14:49:25.588Z,3.20
2017-12-29T14:51:54.724Z,2.60
2017-12-29T14:54:23.034Z,2.65
2017-12-29T14:56:51.391Z,2.50
2017-12-29T14:59:19.766Z,2.20
2017-12-29T15:01:48.095Z,2.60
2017-12-29T15:04:17.246Z,3.50
2017-12-29T15:06:45.948Z,3.28
2017-12-29T15:09:14.264Z,3.85
2017-12-29T15:11:42.594Z,2.90
2017-12-29T15:14:10.976Z,3.05
2017-12-29T15:16:39.343Z,3.05
2017-12-29T15:19:07.693Z,3.00
2017-12-29T15:21:36.057Z,2.97
2017-12-29T15:24:04.396Z,7.78
2017-12-29T15:26:32.719Z,3.62
2017-12-29T15:29:01.192Z,2.15
2017-12-29T15:31:30.330Z,2.55
2017-12-29T15:33:58.632Z,2.40
2017-12-29T15:36:26.984Z,2.00
2017-12-29T15:38:55.289Z,2.50
2017-12-29T15:41:23.663Z,2.85
2017-12-29T15:43:52.010Z,2.92
2017-12-29T15:46:20.313Z,2.72
2017-12-29T15:48:48.651Z,2.15
2017-12-29T15:51:33.955Z,2.40
2017-12-29T15:54:02.305Z,2.67
2017-12-29T15:56:30.640Z,2.30
2017-12-29T15:58:59.812Z,2.22
2017-12-29T16:01:30.531Z,2.42
2017-12-29T16:03:58.853Z,2.95
2017-12-29T16:06:27.236Z,2.67
2017-12-29T16:08:56.354Z,2.80
2017-12-29T16:11:25.417Z,2.45
2017-12-29T16:13:53.899Z,2.45
2017-12-29T16:16:22.209Z,2.22
2017-12-29T16:18:51.286Z,2.60
2017-12-29T16:21:19.630Z,2.53
2017-12-29T16:23:47.994Z,2.80
2017-12-29T16:26:16.365Z,2.60
2017-12-29T16:28:44.701Z,2.30
2017-12-29T16:31:13.036Z,2.78
2017-12-29T16:33:41.408Z,4.55
2017-12-29T16:36:10.050Z,2.75
2017-12-29T16:38:38.440Z,3.20
2017-12-29T16:41:07.544Z,2.83
2017-12-29T16:43:42.389Z,2.45
2017-12-29T16:46:10.752Z,3.58
2017-12-29T16:48:39.087Z,5.57
2017-12-29T16:51:07.465Z,3.35
2017-12-29T16:53:35.801Z,3.55
2017-12-29T16:56:04.125Z,3.65
2017-12-29T16:58:32.862Z,3.60
2017-12-29T17:01:01.949Z,3.00
2017-12-29T17:03:31.013Z,3.75
2017-12-29T17:05:59.393Z,3.78
2017-12-29T17:08:27.808Z,3.37
2017-12-29T17:10:56.881Z,4.28
2017-12-29T17:13:25.213Z,3.58
2017-12-29T17:15:53.547Z,3.17
2017-12-29T17:18:22.646Z,4.00
2017-12-29T17:20:51.384Z,3.50
2017-12-29T17:23:19.683Z,4.00
2017-12-29T17:25:48.010Z,3.00
2017-12-29T17:28:16.370Z,3.70
2017-12-29T17:31:03.294Z,3.62
2017-12-29T17:33:31.654Z,4.62
2017-12-29T17:36:00.011Z,3.37
2017-12-29T17:38:28.322Z,4.03
2017-12-29T17:40:57.503Z,4.20
2017-12-29T17:43:25.806Z,3.62
2017-12-29T17:45:54.874Z,3.35
2017-12-29T17:48:23.198Z,2.87
2017-12-29T17:50:51.525Z,3.50
2017-12-29T17:53:19.862Z,3.60
2017-12-29T17:55:48.190Z,4.85
2017-12-29T17:58:16.543Z,4.50
2017-12-29T18:00:44.842Z,4.30
2017-12-29T18:03:13.532Z,4.90
2017-12-29T18:05:41.853Z,3.62
2017-12-29T18:08:10.185Z,4.53
2017-12-29T18:10:38.528Z,4.20
2017-12-29T18:13:06.874Z,3.60
2017-12-29T18:15:35.987Z,3.65
2017-12-29T18:18:04.325Z,4.00
2017-12-29T18:20:32.685Z,4.15
2017-12-29T18:23:01.003Z,4.12
2017-12-29T18:25:29.657Z,4.03
2017-12-29T18:27:57.976Z,4.53
2017-12-29T18:30:26.321Z,4.00
2017-12-29T18:32:54.674Z,5.18
2017-12-29T18:35:23.000Z,4.82
2017-12-29T18:37:51.333Z,4.45
2017-12-29T18:40:19.681Z,4.87
2017-12-29T18:42:47.982Z,4.28
2017-12-29T18:45:16.314Z,4.55
2017-12-29T18:47:45.629Z,4.30
2017-12-29T18:50:13.936Z,4.53
2017-12-29T18:52:42.322Z,4.55
2017-12-29T18:55:10.659Z,4.28
2017-12-29T18:57:38.978Z,4.03
2017-12-29T19:00:08.067Z,3.53
2017-12-29T19:02:36.382Z,3.50
2017-12-29T19:05:04.690Z,4.07
2017-12-29T19:07:33.000Z,3.50
2017-12-29T19:10:01.931Z,3.50
2017-12-29T19:12:30.249Z,3.30
2017-12-29T19:14:58.594Z,4.18
2017-12-29T19:17:26.979Z,3.55
2017-12-29T19:19:56.116Z,3.83
2017-12-29T19:22:24.418Z,4.57
2017-12-29T19:24:52.793Z,3.20
2017-12-29T19:27:21.096Z,3.67
2017-12-29T19:29:49.438Z,3.45
2017-12-29T19:32:18.281Z,3.15
2017-12-29T19:34:47.338Z,3.20
2017-12-29T19:37:15.656Z,3.75
2017-12-29T19:39:44.324Z,3.62
2017-12-29T19:42:13.396Z,4.62
2017-12-29T19:44:41.720Z,4.20
2017-12-29T19:47:10.069Z,5.00
2017-12-29T19:49:38.396Z,4.87
2017-12-29T19:52:06.719Z,5.12
2017-12-29T19:54:35.362Z,4.30
2017-12-29T19:57:03.683Z,4.32
2017-12-29T19:59:32.071Z,5.18
2017-12-29T20:02:00.429Z,6.65
2017-12-29T20:04:28.753Z,5.00
2017-12-29T20:06:57.891Z,5.12
2017-12-29T20:09:27.309Z,7.60
2017-12-29T20:11:56.530Z,5.55
2017-12-29T20:14:25.011Z,4.60
2017-12-29T20:16:54.623Z,4.68
2017-12-29T20:19:22.951Z,5.40
2017-12-29T20:21:51.273Z,4.85
2017-12-29T20:24:19.654Z,4.78
2017-12-29T20:26:48.008Z,5.18
2017-12-29T20:29:16.363Z,4.32
2017-12-29T20:31:44.725Z,4.35
2017-12-29T20:34:13.267Z,4.68
2017-12-29T20:36:42.409Z,5.28
2017-12-29T20:39:11.371Z,4.05
2017-12-29T20:41:39.750Z,4.30
2017-12-29T20:44:08.095Z,4.75
2017-12-29T20:46:36.458Z,4.20
2017-12-29T20:49:04.763Z,4.45
2017-12-29T20:51:33.145Z,4.03
2017-12-29T20:54:01.544Z,4.40
2017-12-29T20:56:30.715Z,4.28
2017-12-29T20:58:59.055Z,3.35
2017-12-29T21:01:27.686Z,4.10
2017-12-29T21:03:56.031Z,3.40
2017-12-29T21:06:24.400Z,3.92
2017-12-29T21:08:52.750Z,3.92
2017-12-29T21:11:21.857Z,3.67
2017-12-29T21:13:50.959Z,3.83
2017-12-29T21:16:19.295Z,3.75
2017-12-29T21:18:47.639Z,3.47
2017-12-29T21:21:15.995Z,4.03
2017-12-29T21:23:44.697Z,3.87
2017-12-29T21:26:13.038Z,3.75
2017-12-29T21:28:42.220Z,3.95
2017-12-29T21:31:10.652Z,5.05
2017-12-29T21:33:39.183Z,4.32
2017-12-29T21:36:07.582Z,4.68
2017-12-29T21:38:36.795Z,3.83
2017-12-29T21:41:05.171Z,3.85
2017-12-29T21:43:35.405Z,3.80
2017-12-29T21:46:03.874Z,3.85
2017-12-29T21:48:32.196Z,3.62
2017-12-29T21:51:00.539Z,4.30
2017-12-29T21:53:28.881Z,4.03
2017-12-29T21:55:57.210Z,4.47
2017-12-29T21:58:25.581Z,3.80
2017-12-29T22:00:54.018Z,4.32
2017-12-29T22:03:22.367Z,4.07
2017-12-29T22:05:50.688Z,3.80
2017-12-29T22:08:19.201Z,3.95
2017-12-29T22:10:47.505Z,4.78
2017-12-29T22:13:15.836Z,3.55
2017-12-29T22:15:44.224Z,3.83
2017-12-29T22:18:13.329Z,5.03
2017-12-29T22:20:41.686Z,3.95
2017-12-29T22:23:10.797Z,3.83
2017-12-29T22:25:39.847Z,5.28
2017-12-29T22:28:08.169Z,4.10
2017-12-29T22:30:37.401Z,4.43
2017-12-29T22:33:05.718Z,4.03
2017-12-29T22:35:34.065Z,3.60
2017-12-29T22:38:02.439Z,4.43
2017-12-29T22:40:30.757Z,4.50
2017-12-29T22:43:16.974Z,4.30
2017-12-29T22:45:46.031Z,4.47
2017-12-29T22:48:14.406Z,5.10
2017-12-29T22:50:42.967Z,4.75
2017-12-29T22:53:11.297Z,4.80
2017-12-29T22:55:39.644Z,5.00
2017-12-29T22:58:08.008Z,5.53
2017-12-29T23:00:36.350Z,4.93
2017-12-29T23:03:05.449Z,4.47
2017-12-29T23:05:33.855Z,4.65
2017-12-29T23:08:02.161Z,4.78
2017-12-29T23:10:30.476Z,4.90
2017-12-29T23:12:59.036Z,5.70
2017-12-29T23:15:27.360Z,5.40
2017-12-29T23:17:56.525Z,5.72
2017-12-29T23:20:24.886Z,5.30
2017-12-29T23:22:53.212Z,6.00
2017-12-29T23:25:21.529Z,5.80
2017-12-29T23:27:50.723Z,5.50
2017-12-29T23:30:19.059Z,5.50
2017-12-29T23:32:48.187Z,5.75
2017-12-29T23:35:16.606Z,6.50
2017-12-29T23:37:45.019Z,5.82
2017-12-29T23:40:13.352Z,5.45
2017-12-29T23:42:41.720Z,6.05
2017-12-29T23:45:10.115Z,6.12
2017-12-29T23:47:38.507Z,6.28
2017-12-29T23:50:06.845Z,6.95
2017-12-29T23:52:35.227Z,7.00
2017-12-29T23:55:03.553Z,5.90
2017-12-29T23:57:33.005Z,6.35
